createdAt,value
2023-01-18T18:34:27.502Z,10.07
2023-01-18T18:36:55.419Z,13.43
2023-01-18T18:39:23.423Z,17.75
2023-01-18T18:41:51.277Z,20.08
2023-01-18T18:44:19.269Z,23.00
2023-01-18T18:46:47.531Z,20.88
2023-01-18T18:49:15.516Z,24.15
2023-01-18T18:51:44.770Z,23.23
2023-01-18T18:54:13.295Z,21.27
2023-01-18T18:56:41.469Z,21.05
2023-01-18T18:59:09.356Z,22.83
2023-01-18T19:01:37.445Z,22.83
2023-01-18T19:04:06.250Z,29.08
2023-01-18T19:06:35.240Z,30.45
2023-01-18T19:09:05.313Z,34.92
2023-01-18T19:11:33.392Z,28.83
2023-01-18T19:14:01.699Z,35.97
2023-01-18T19:16:29.641Z,30.05
2023-01-18T19:18:57.579Z,32.58
2023-01-18T19:21:25.712Z,35.50
2023-01-18T19:23:53.567Z,34.67
2023-01-18T19:26:22.843Z,38.28
2023-01-18T19:28:50.698Z,30.80
2023-01-18T19:31:18.788Z,36.28
2023-01-18T19:33:46.673Z,35.13
2023-01-18T19:36:16.778Z,30.73
2023-01-18T19:38:49.239Z,30.48
2023-01-18T19:41:18.872Z,37.67
2023-01-18T19:43:51.023Z,30.55
2023-01-18T19:46:20.141Z,27.88
2023-01-18T19:48:48.195Z,27.55
2023-01-18T19:51:22.432Z,26.38
2023-01-18T19:53:51.279Z,22.48
2023-01-18T19:56:19.223Z,21.08
2023-01-18T19:58:47.354Z,21.77
2023-01-18T20:01:34.745Z,20.13
2023-01-18T20:04:04.246Z,19.58
2023-01-18T20:06:32.124Z,21.92
2023-01-18T20:08:59.968Z,23.85
2023-01-18T20:11:27.970Z,23.90
2023-01-18T20:13:55.902Z,22.27
2023-01-18T20:16:25.223Z,23.50
2023-01-18T20:18:54.417Z,18.00
2023-01-18T20:21:22.305Z,18.98
2023-01-18T20:23:50.565Z,18.95
2023-01-18T20:26:31.092Z,20.30
2023-01-18T20:29:06.241Z,22.00
2023-01-18T20:31:36.264Z,27.90
2023-01-18T20:34:04.659Z,28.98
2023-01-18T20:36:34.718Z,30.08
2023-01-18T20:39:02.765Z,28.73
2023-01-18T20:41:30.817Z,28.73
2023-01-18T20:43:58.680Z,32.17
2023-01-18T20:46:26.587Z,34.50
2023-01-18T20:48:55.814Z,34.88
2023-01-18T20:51:23.663Z,34.88
2023-01-18T20:53:51.507Z,39.15
2023-01-18T20:56:34.593Z,39.17
2023-01-18T20:59:02.469Z,42.17
2023-01-18T21:01:32.817Z,39.75
2023-01-18T21:04:03.870Z,42.03
2023-01-18T21:06:32.010Z,43.22
2023-01-18T21:09:00.990Z,43.10
2023-01-18T21:11:29.021Z,40.58
2023-01-18T21:13:58.952Z,44.42
2023-01-18T21:16:27.574Z,54.00
2023-01-18T21:18:56.252Z,48.65
2023-01-18T21:21:26.699Z,44.03
2023-01-18T21:23:54.706Z,43.47
2023-01-18T21:26:22.711Z,41.45
2023-01-18T21:28:50.543Z,42.22
2023-01-18T21:31:18.701Z,36.78
2023-01-18T21:33:46.629Z,42.40
2023-01-18T21:36:17.369Z,41.45
2023-01-18T21:38:47.509Z,39.55
2023-01-18T21:41:33.411Z,38.50
2023-01-18T21:44:18.897Z,38.72
2023-01-18T21:46:46.981Z,36.92
2023-01-18T21:49:42.880Z,37.30
2023-01-18T21:52:32.936Z,40.53
2023-01-18T21:55:02.190Z,44.83
2023-01-18T21:57:30.099Z,42.75
2023-01-18T21:59:57.971Z,39.67
2023-01-18T22:02:26.001Z,41.50
2023-01-18T22:05:00.106Z,48.97
2023-01-18T22:07:29.889Z,49.53
2023-01-18T22:10:05.141Z,50.00
2023-01-18T22:12:38.760Z,56.95
2023-01-18T22:15:07.646Z,54.80
2023-01-18T22:17:35.500Z,47.83
2023-01-18T22:20:04.504Z,51.92
2023-01-18T22:22:32.365Z,55.05
2023-01-18T22:25:02.101Z,56.25
2023-01-18T22:27:30.162Z,51.42
2023-01-18T22:29:59.377Z,57.05
2023-01-18T22:32:27.600Z,69.40
2023-01-18T22:34:55.458Z,53.75
2023-01-18T22:37:23.422Z,55.42
2023-01-18T22:39:51.622Z,55.90
2023-01-18T22:42:20.045Z,56.47
2023-01-18T22:44:47.902Z,56.88
2023-01-18T22:47:17.133Z,53.33
2023-01-18T22:49:45.058Z,60.13
2023-01-18T22:52:12.924Z,60.33
2023-01-18T22:54:42.416Z,60.38
2023-01-18T22:57:10.283Z,60.25
2023-01-18T22:59:38.137Z,62.58
2023-01-18T23:02:05.979Z,62.10
2023-01-18T23:04:35.232Z,61.95
2023-01-18T23:07:03.121Z,68.03
2023-01-18T23:09:31.259Z,59.80
2023-01-18T23:11:59.091Z,65.05
2023-01-18T23:14:44.403Z,61.03
2023-01-18T23:19:59.175Z,63.60
2023-01-18T23:22:27.037Z,69.32
2023-01-18T23:24:55.519Z,67.90
2023-01-18T23:27:23.652Z,66.47
2023-01-18T23:29:56.500Z,67.63
2023-01-18T23:32:27.264Z,70.38
2023-01-18T23:34:55.454Z,72.55
2023-01-18T23:37:25.454Z,68.53
2023-01-18T23:40:10.739Z,64.50
2023-01-18T23:45:41.314Z,62.35
2023-01-18T23:48:27.729Z,66.20
2023-01-18T23:51:13.195Z,69.78
2023-01-18T23:53:59.791Z,72.90
2023-01-18T23:56:27.964Z,71.03
2023-01-18T23:58:56.390Z,69.88
